Masset, Canada
Current Conditions -  °F | °C
As of 6:00 PM on Monday 20 Oct 2014 (Local Time) from CZMT Reporting Station
Scattered Clouds Scattered Clouds  
Wind Chill: 10°   Ceiling: Unl
Heat Index: 10°   Visibility: 15mi
Dew Point:   Wind: 0mph
Humidity: 94%   Direction: NA
Pressure: 29.45"   Gusts: NA
Location:  54.02°N, 132.15°W
Report Text: CZMT 210100Z 00000KT 15SM SCT015TCU SCT030 10/09 A2945 RMK TCU3SC1 LAST OBS/NEXT 211400 UTC SLP973
Loading
Personal Weather Stations






























Interactive Weather Map
Tropical Storm Tracking
New forecast layout! Learn more

10-Day Weather Forecast

Advertisements
Track Severe Weather on mobile